Time;durP1;ratioP1;P1;durP2;ratioP2;P2;SDS_P1;SDS_P2;PMS_P1;PMS_P2;Temp;Humidity;BMP_temperature;BMP_pressure;BME280_temperature;BME280_humidity;BME280_pressure;Samples;Min_cycle;Max_cycle;Signal;HPM_P1;HPM_P2
2022/10/06 00:01:17;;;;;;;1.30;1.10;;;16.70;44.00;;;;;;5005861;28;20667;-69
2022/10/06 00:03:44;;;;;;;1.30;1.13;;;16.70;44.10;;;;;;5014037;28;20220;-69
2022/10/06 00:06:12;;;;;;;1.30;1.20;;;16.70;44.20;;;;;;5014300;28;20423;-70
2022/10/06 00:08:39;;;;;;;1.30;1.20;;;16.60;44.80;;;;;;5014231;28;20446;-70
2022/10/06 00:11:06;;;;;;;1.30;1.17;;;16.70;44.70;;;;;;5012802;28;20778;-69
2022/10/06 00:13:33;;;;;;;1.30;1.30;;;16.70;45.00;;;;;;5014268;28;20416;-69
2022/10/06 00:15:59;;;;;;;1.30;1.00;;;16.90;43.40;;;;;;5013796;28;20463;-69
2022/10/06 00:18:26;;;;;;;1.30;1.10;;;17.00;42.80;;;;;;5014097;28;20425;-70
2022/10/06 00:20:59;;;;;;;1.30;1.30;;;16.90;43.40;;;;;;5013921;28;20461;-69
2022/10/06 00:23:27;;;;;;;2.13;1.70;;;16.90;44.40;;;;;;5013579;28;20471;-70
2022/10/06 00:25:53;;;;;;;1.30;1.20;;;16.70;44.70;;;;;;5013499;28;20505;-70
2022/10/06 00:28:20;;;;;;;1.30;1.20;;;16.50;45.30;;;;;;5014054;28;20445;-70
2022/10/06 00:30:46;;;;;;;1.30;1.20;;;16.60;45.00;;;;;;5013290;28;20408;-70
2022/10/06 00:33:14;;;;;;;1.30;1.00;;;16.70;44.40;;;;;;5013429;28;20501;-69
2022/10/06 00:35:41;;;;;;;1.30;1.10;;;16.60;45.40;;;;;;5013395;28;20447;-69
2022/10/06 00:38:07;;;;;;;1.30;1.10;;;16.60;45.00;;;;;;5013826;28;20419;-69
2022/10/06 00:40:33;;;;;;;1.30;1.20;;;16.50;46.10;;;;;;5013579;28;20421;-69
2022/10/06 00:43:03;;;;;;;1.30;1.20;;;16.60;44.70;;;;;;5013058;28;20215;-70
2022/10/06 00:45:43;;;;;;;1.30;1.20;;;16.60;44.40;;;;;;5013280;28;20514;-69
2022/10/06 00:48:20;;;;;;;1.30;1.10;;;16.40;45.00;;;;;;5013397;28;20426;-70
2022/10/06 00:50:46;;;;;;;1.30;1.20;;;16.40;44.70;;;;;;5013170;28;20772;-70
2022/10/06 00:53:13;;;;;;;1.30;1.17;;;16.60;45.70;;;;;;5013231;28;21015;-70
2022/10/06 00:55:39;;;;;;;1.30;1.20;;;16.50;45.30;;;;;;5013158;28;20919;-70
2022/10/06 00:58:06;;;;;;;1.30;1.10;;;16.60;44.80;;;;;;5012111;28;20430;-69
2022/10/06 01:00:32;;;;;;;1.30;1.10;;;16.50;45.30;;;;;;5013245;28;20204;-70
2022/10/06 01:03:16;;;;;;;1.30;1.10;;;16.50;44.70;;;;;;5012765;28;20468;-69
2022/10/06 01:05:46;;;;;;;1.30;1.10;;;16.50;44.70;;;;;;5013150;28;20438;-69
2022/10/06 01:08:12;;;;;;;1.30;1.20;;;16.40;45.30;;;;;;5013096;28;20392;-69
2022/10/06 01:10:38;;;;;;;1.30;1.30;;;16.30;45.90;;;;;;5013118;28;20443;-69
2022/10/06 01:13:05;;;;;;;1.30;1.10;;;16.30;45.70;;;;;;5012764;28;20515;-69
2022/10/06 01:15:32;;;;;;;1.30;1.10;;;16.30;45.80;;;;;;5012620;28;20180;-69
2022/10/06 01:18:07;;;;;;;1.30;1.10;;;16.40;44.60;;;;;;5013064;28;20525;-69
2022/10/06 01:20:37;;;;;;;1.30;1.10;;;16.20;45.80;;;;;;5012661;28;20840;-69
2022/10/06 01:23:05;;;;;;;1.30;1.20;;;16.20;46.40;;;;;;5012617;28;20461;-69
2022/10/06 01:25:33;;;;;;;1.30;1.10;;;16.40;44.80;;;;;;5012835;28;20419;-69
2022/10/06 01:28:01;;;;;;;1.30;1.10;;;16.40;44.50;;;;;;5012784;28;20436;-69
2022/10/06 01:30:39;;;;;;;1.30;1.03;;;16.20;45.40;;;;;;5013011;28;20889;-69
2022/10/06 01:33:05;;;;;;;1.30;1.20;;;16.20;45.50;;;;;;5012199;28;20410;-69
2022/10/06 01:35:30;;;;;;;1.30;1.10;;;16.30;45.00;;;;;;5012554;28;20505;-70
2022/10/06 01:37:58;;;;;;;1.30;1.10;;;16.20;45.10;;;;;;5012989;28;20187;-70
2022/10/06 01:40:28;;;;;;;1.30;1.20;;;16.40;44.50;;;;;;5012749;28;20253;-70
2022/10/06 01:42:54;;;;;;;1.30;1.10;;;16.20;45.30;;;;;;5011753;28;20969;-69
2022/10/06 01:45:20;;;;;;;1.30;1.10;;;16.10;45.60;;;;;;5011214;28;20427;-70
2022/10/06 01:47:46;;;;;;;1.30;1.20;;;16.00;46.40;;;;;;5012347;28;20414;-70
2022/10/06 01:50:13;;;;;;;1.30;1.20;;;16.00;46.10;;;;;;5012613;28;20411;-71
2022/10/06 01:52:38;;;;;;;1.30;1.20;;;16.00;45.80;;;;;;5011817;28;20436;-72
2022/10/06 01:55:05;;;;;;;1.30;1.10;;;16.00;45.20;;;;;;5012125;28;20408;-70
2022/10/06 01:57:30;;;;;;;1.30;1.20;;;15.90;46.00;;;;;;5011088;28;20201;-73
2022/10/06 01:59:57;;;;;;;1.30;1.10;;;15.90;45.40;;;;;;5011477;28;21174;-70
2022/10/06 02:02:22;;;;;;;1.30;1.03;;;16.00;46.10;;;;;;5011326;28;20241;-70
2022/10/06 02:04:48;;;;;;;1.30;1.20;;;16.00;45.30;;;;;;5011964;28;20883;-68
2022/10/06 02:07:14;;;;;;;1.30;1.10;;;15.90;46.00;;;;;;5012013;28;20206;-68
2022/10/06 02:09:39;;;;;;;1.30;1.10;;;15.80;46.40;;;;;;5012003;28;20657;-68
2022/10/06 02:12:05;;;;;;;1.30;1.10;;;15.70;45.80;;;;;;5009014;28;20193;-68
2022/10/06 02:14:31;;;;;;;1.30;1.00;;;15.70;45.90;;;;;;5011561;28;20182;-68
2022/10/06 02:16:57;;;;;;;1.30;1.20;;;15.70;46.10;;;;;;5011818;28;20228;-69
2022/10/06 02:19:23;;;;;;;1.30;1.20;;;15.70;47.10;;;;;;5012052;28;20424;-69
2022/10/06 02:21:49;;;;;;;1.30;1.10;;;15.70;46.30;;;;;;5011288;28;20469;-69
2022/10/06 02:24:14;;;;;;;1.30;1.10;;;15.70;46.20;;;;;;5011723;28;20465;-69
2022/10/06 02:26:40;;;;;;;1.30;1.20;;;15.70;46.40;;;;;;5011788;28;20204;-69
2022/10/06 02:29:05;;;;;;;1.30;1.20;;;15.50;46.40;;;;;;5011915;28;20310;-69
2022/10/06 02:31:31;;;;;;;1.30;1.07;;;15.70;46.10;;;;;;5011104;28;20182;-69
2022/10/06 02:33:57;;;;;;;1.30;1.10;;;15.60;46.20;;;;;;5010881;28;20179;-69
2022/10/06 02:36:23;;;;;;;1.30;1.20;;;15.50;46.70;;;;;;5011784;28;20645;-70
2022/10/06 02:38:49;;;;;;;1.30;1.00;;;15.60;46.40;;;;;;5011739;28;20419;-69
2022/10/06 02:41:15;;;;;;;1.30;1.20;;;15.70;45.80;;;;;;5011167;28;20202;-69
2022/10/06 02:43:40;;;;;;;1.30;1.10;;;15.80;46.30;;;;;;5011218;28;20232;-71
2022/10/06 02:46:10;;;;;;;1.30;1.20;;;15.60;47.10;;;;;;5011537;28;20209;-69
2022/10/06 02:48:36;;;;;;;1.30;1.10;;;15.50;47.20;;;;;;5011596;28;20177;-69
2022/10/06 02:51:10;;;;;;;1.30;1.10;;;15.60;46.60;;;;;;5011280;28;20404;-69
2022/10/06 02:53:36;;;;;;;1.30;1.10;;;15.50;47.10;;;;;;5011099;28;20872;-69
2022/10/06 02:56:02;;;;;;;1.30;1.10;;;15.70;46.20;;;;;;5011567;28;20535;-69
2022/10/06 02:58:31;;;;;;;1.30;1.10;;;15.80;46.40;;;;;;5010287;28;20481;-69
2022/10/06 03:01:06;;;;;;;1.30;1.20;;;15.80;46.20;;;;;;5011232;28;20261;-69
2022/10/06 03:03:33;;;;;;;1.30;1.10;;;15.80;46.30;;;;;;5011246;28;20460;-69
2022/10/06 03:06:03;;;;;;;1.30;1.20;;;15.70;45.90;;;;;;5011510;28;20440;-69
2022/10/06 03:08:29;;;;;;;1.30;1.00;;;15.60;46.40;;;;;;5011167;28;20425;-69
2022/10/06 03:11:02;;;;;;;1.30;1.20;;;15.60;46.60;;;;;;5011196;28;20412;-69
2022/10/06 03:13:29;;;;;;;1.30;1.20;;;16.00;47.60;;;;;;5011381;28;20182;-70
2022/10/06 03:15:55;;;;;;;1.30;1.07;;;15.70;47.10;;;;;;5011065;28;20883;-69
2022/10/06 03:18:21;;;;;;;1.30;1.20;;;15.50;47.50;;;;;;5011312;28;20508;-69
2022/10/06 03:20:47;;;;;;;1.30;1.10;;;15.60;46.30;;;;;;5011108;28;20512;-69
2022/10/06 03:23:12;;;;;;;1.30;1.10;;;15.50;46.40;;;;;;5010942;28;20460;-69
2022/10/06 03:25:38;;;;;;;1.30;1.00;;;15.50;46.50;;;;;;5011019;28;20188;-69
2022/10/06 03:28:03;;;;;;;1.30;1.10;;;15.50;46.50;;;;;;5011850;28;20171;-69
2022/10/06 03:30:29;;;;;;;1.30;1.10;;;15.60;46.40;;;;;;5011328;28;20545;-69
2022/10/06 03:32:55;;;;;;;1.30;1.10;;;15.80;46.70;;;;;;5010850;28;20178;-70
2022/10/06 03:35:20;;;;;;;1.30;1.13;;;15.50;46.70;;;;;;5011063;28;20177;-69
2022/10/06 03:37:46;;;;;;;1.30;1.27;;;15.50;46.60;;;;;;5011198;28;20555;-69
2022/10/06 03:40:12;;;;;;;1.30;1.17;;;15.50;46.50;;;;;;5011121;28;20181;-69
2022/10/06 03:42:37;;;;;;;1.30;1.10;;;15.80;45.80;;;;;;5010386;28;20672;-69
2022/10/06 03:45:03;;;;;;;1.30;1.20;;;15.50;46.50;;;;;;5013559;28;20417;-69
2022/10/06 03:47:30;;;;;;;3.10;1.50;;;15.50;47.10;;;;;;5014471;28;20696;-69
2022/10/06 03:49:55;;;;;;;1.30;1.10;;;15.40;47.40;;;;;;5014740;28;20447;-69
2022/10/06 03:52:21;;;;;;;1.30;1.20;;;15.40;46.90;;;;;;5014163;28;20839;-68
2022/10/06 03:54:46;;;;;;;1.30;1.10;;;15.50;47.10;;;;;;5014070;28;20723;-69
2022/10/06 03:57:12;;;;;;;1.30;1.07;;;15.40;47.30;;;;;;5014503;28;20231;-69
2022/10/06 03:59:38;;;;;;;1.30;1.10;;;15.40;47.80;;;;;;5014292;28;20177;-70
2022/10/06 04:02:04;;;;;;;1.30;1.10;;;15.40;47.20;;;;;;5013983;28;20504;-69
2022/10/06 04:04:30;;;;;;;1.30;1.00;;;15.40;47.30;;;;;;5013606;28;20183;-69
2022/10/06 04:06:55;;;;;;;1.30;1.10;;;15.40;47.20;;;;;;5014873;28;20198;-69
2022/10/06 04:09:21;;;;;;;1.30;1.03;;;15.30;47.80;;;;;;5014166;28;20420;-69
2022/10/06 04:11:47;;;;;;;1.30;1.07;;;15.40;47.60;;;;;;5013648;28;20186;-69
2022/10/06 04:14:14;;;;;;;1.30;1.10;;;15.30;47.50;;;;;;5014017;28;20181;-69
2022/10/06 04:16:45;;;;;;;1.30;1.17;;;15.40;47.60;;;;;;5014203;28;20263;-70
2022/10/06 04:19:13;;;;;;;1.30;1.10;;;15.40;48.30;;;;;;5014170;28;20471;-69
2022/10/06 04:21:40;;;;;;;1.30;1.10;;;15.50;47.30;;;;;;5013731;28;20502;-69
2022/10/06 04:24:07;;;;;;;1.30;1.00;;;15.50;47.70;;;;;;5013639;28;20420;-69
2022/10/06 04:26:36;;;;;;;1.30;1.00;;;15.70;47.30;;;;;;5013832;28;20428;-69
2022/10/06 04:29:02;;;;;;;1.30;1.10;;;15.70;47.90;;;;;;5013722;28;20407;-69
2022/10/06 04:31:30;;;;;;;1.30;1.17;;;15.60;48.50;;;;;;5013528;28;20409;-69
2022/10/06 04:33:58;;;;;;;1.30;1.10;;;15.80;47.30;;;;;;5013536;28;20420;-69
2022/10/06 04:36:35;;;;;;;1.30;1.10;;;15.70;48.40;;;;;;5013683;28;20429;-69
2022/10/06 04:39:03;;;;;;;1.30;1.13;;;15.70;48.10;;;;;;5013654;28;20400;-70
2022/10/06 04:41:37;;;;;;;1.30;1.10;;;15.60;48.50;;;;;;5013193;28;20401;-70
2022/10/06 04:44:03;;;;;;;1.30;1.20;;;15.90;47.60;;;;;;5013397;28;20566;-69
2022/10/06 04:46:30;;;;;;;1.30;1.10;;;15.90;47.60;;;;;;5013425;28;20428;-69
2022/10/06 04:48:56;;;;;;;1.30;1.07;;;15.90;47.30;;;;;;5013344;28;20424;-69
2022/10/06 04:51:23;;;;;;;1.30;1.17;;;15.80;47.90;;;;;;5013082;28;20416;-69
2022/10/06 04:53:50;;;;;;;1.30;1.20;;;15.80;47.70;;;;;;5013420;28;20170;-68
2022/10/06 04:56:22;;;;;;;1.30;1.20;;;15.90;46.60;;;;;;5012859;28;20436;-68
2022/10/06 04:58:50;;;;;;;1.30;1.10;;;15.70;47.90;;;;;;5013210;28;20420;-68
2022/10/06 05:01:24;;;;;;;1.30;1.20;;;15.60;47.70;;;;;;5012922;28;20884;-68
2022/10/06 05:03:55;;;;;;;1.30;1.20;;;15.70;46.90;;;;;;5012976;28;20767;-69
2022/10/06 05:06:23;;;;;;;1.30;1.10;;;15.80;46.70;;;;;;5013196;28;20507;-69
2022/10/06 05:08:54;;;;;;;1.30;1.10;;;15.60;47.10;;;;;;5013037;28;20405;-70
2022/10/06 05:11:21;;;;;;;1.30;1.10;;;15.50;47.80;;;;;;5012610;28;20400;-69
2022/10/06 05:13:49;;;;;;;1.30;1.20;;;15.70;47.40;;;;;;5012761;28;20421;-69
2022/10/06 05:16:15;;;;;;;1.30;1.10;;;15.80;46.80;;;;;;5012709;28;20448;-69
2022/10/06 05:18:41;;;;;;;1.30;1.10;;;15.90;46.30;;;;;;5013113;28;20413;-69
2022/10/06 05:21:13;;;;;;;1.30;1.10;;;16.00;46.70;;;;;;5012375;28;20459;-69
2022/10/06 05:23:40;;;;;;;1.40;1.30;;;15.80;47.30;;;;;;5012779;28;20802;-68
2022/10/06 05:26:07;;;;;;;1.30;1.23;;;15.60;47.90;;;;;;5012809;28;20437;-69
2022/10/06 05:28:33;;;;;;;1.30;1.10;;;15.30;48.40;;;;;;5011622;28;20397;-69
2022/10/06 05:31:15;;;;;;;1.30;1.10;;;15.50;47.80;;;;;;5012196;28;20825;-69
2022/10/06 05:33:41;;;;;;;1.30;1.13;;;15.40;47.60;;;;;;5012409;28;20395;-68
2022/10/06 05:36:11;;;;;;;1.30;1.10;;;15.40;48.10;;;;;;5012381;28;20809;-68
2022/10/06 05:38:36;;;;;;;1.30;1.20;;;15.50;47.20;;;;;;5012672;28;20204;-69
2022/10/06 05:41:03;;;;;;;1.30;1.20;;;15.60;47.00;;;;;;5011894;28;20942;-70
2022/10/06 05:43:29;;;;;;;1.30;1.13;;;15.70;46.30;;;;;;5010995;28;20455;-69
2022/10/06 05:45:57;;;;;;;1.30;1.00;;;15.70;46.50;;;;;;5012322;28;21066;-69
2022/10/06 05:48:23;;;;;;;1.30;1.20;;;15.70;46.10;;;;;;5012573;28;20911;-69
2022/10/06 05:51:00;;;;;;;1.30;1.10;;;15.70;46.70;;;;;;5011829;28;20424;-69
2022/10/06 05:53:27;;;;;;;1.30;1.10;;;15.60;46.60;;;;;;5012207;28;20442;-69
2022/10/06 05:56:05;;;;;;;1.30;1.10;;;15.50;47.50;;;;;;5012038;28;20939;-69
2022/10/06 05:58:33;;;;;;;1.30;1.20;;;15.50;47.60;;;;;;5012269;28;20421;-69
2022/10/06 06:01:16;;;;;;;1.30;1.10;;;15.40;47.70;;;;;;5011851;28;20409;-70
2022/10/06 06:03:46;;;;;;;1.30;1.10;;;15.90;47.90;;;;;;5011854;28;20460;-68
2022/10/06 06:06:17;;;;;;;1.30;1.10;;;15.90;46.60;;;;;;5011964;28;20475;-69
2022/10/06 06:08:43;;;;;;;1.30;1.00;;;15.80;46.90;;;;;;5011191;28;20480;-69
2022/10/06 06:11:09;;;;;;;1.30;1.10;;;15.70;48.00;;;;;;5011707;28;20531;-69
2022/10/06 06:13:35;;;;;;;1.30;1.10;;;15.90;47.10;;;;;;5011761;28;20256;-69
2022/10/06 06:16:04;;;;;;;1.30;1.10;;;16.00;46.90;;;;;;5011714;28;20454;-69
2022/10/06 06:18:31;;;;;;;1.30;1.20;;;15.80;48.00;;;;;;5011933;28;20467;-69
2022/10/06 06:20:59;;;;;;;1.30;1.13;;;15.80;48.30;;;;;;5011707;28;20845;-69
2022/10/06 06:23:33;;;;;;;1.30;1.20;;;15.90;48.10;;;;;;5011318;28;20444;-70
2022/10/06 06:26:00;;;;;;;1.30;1.20;;;15.90;48.30;;;;;;5011742;28;20516;-69
2022/10/06 06:28:28;;;;;;;1.30;1.10;;;16.10;49.10;;;;;;5011962;28;20433;-69
2022/10/06 06:31:05;;;;;;;1.30;1.20;;;16.10;48.90;;;;;;5011711;28;20412;-69
2022/10/06 06:33:32;;;;;;;1.30;1.10;;;16.30;49.40;;;;;;5011610;28;20507;-69
2022/10/06 06:36:01;;;;;;;1.30;1.17;;;16.30;49.20;;;;;;5011408;28;20533;-69
2022/10/06 06:38:27;;;;;;;1.30;1.10;;;16.40;49.10;;;;;;5011876;28;20420;-69
2022/10/06 06:40:53;;;;;;;1.30;1.07;;;16.50;48.40;;;;;;5011427;28;20539;-69
2022/10/06 06:43:18;;;;;;;1.30;1.10;;;16.60;49.00;;;;;;5011391;28;20540;-69
2022/10/06 06:45:44;;;;;;;1.30;1.17;;;16.70;48.90;;;;;;5011369;28;20245;-69
2022/10/06 06:48:14;;;;;;;1.30;1.23;;;16.70;49.60;;;;;;5011695;28;20172;-69
2022/10/06 06:50:41;;;;;;;1.30;1.20;;;16.80;49.90;;;;;;5011463;28;20247;-69
2022/10/06 06:53:06;;;;;;;1.30;1.10;;;16.90;50.20;;;;;;5011136;28;20819;-69
2022/10/06 06:55:32;;;;;;;1.30;1.30;;;17.10;48.70;;;;;;5011420;28;20411;-69
2022/10/06 06:57:57;;;;;;;1.30;1.20;;;17.10;48.40;;;;;;5011621;28;20239;-69
2022/10/06 07:00:23;;;;;;;1.30;1.10;;;17.10;48.60;;;;;;5011377;28;20204;-69
2022/10/06 07:02:57;;;;;;;1.30;1.20;;;17.20;49.60;;;;;;5010812;28;20228;-69
2022/10/06 07:05:23;;;;;;;1.30;1.10;;;17.40;49.40;;;;;;5011298;28;20234;-69
2022/10/06 07:07:48;;;;;;;1.30;1.20;;;17.40;50.60;;;;;;5011572;28;20908;-70
2022/10/06 07:10:14;;;;;;;1.30;1.20;;;17.50;49.20;;;;;;5011885;28;20197;-69
2022/10/06 07:12:42;;;;;;;1.30;1.10;;;17.70;47.00;;;;;;5009513;28;20173;-69
2022/10/06 07:26:06;;;;;;;1.30;1.13;;;17.60;47.10;;;;;;5015000;28;20436;-70
2022/10/06 07:28:31;;;;;;;1.30;1.20;;;17.70;48.30;;;;;;5015309;28;20455;-69
2022/10/06 07:30:59;;;;;;;1.30;1.20;;;17.80;48.70;;;;;;5013434;28;20435;-69
2022/10/06 07:33:27;;;;;;;1.30;1.23;;;17.90;48.20;;;;;;5014791;28;20174;-70
2022/10/06 07:35:53;;;;;;;1.30;1.10;;;18.00;47.40;;;;;;5014424;28;20438;-69
2022/10/06 07:38:24;;;;;;;1.30;1.20;;;18.10;47.40;;;;;;5014978;28;20416;-70
2022/10/06 07:40:54;;;;;;;1.30;1.17;;;18.10;44.60;;;;;;5014649;28;20412;-69
2022/10/06 07:43:20;;;;;;;1.30;1.20;;;18.30;44.60;;;;;;5014634;28;20490;-69
2022/10/06 07:45:45;;;;;;;1.30;1.30;;;18.40;42.90;;;;;;5014454;28;20845;-70
2022/10/06 07:48:19;;;;;;;1.30;1.10;;;18.50;42.50;;;;;;5014753;28;20239;-69
2022/10/06 07:50:47;;;;;;;1.30;1.20;;;18.30;44.60;;;;;;5014262;28;20181;-71
2022/10/06 07:53:15;;;;;;;1.30;1.30;;;18.20;44.00;;;;;;5014427;28;20419;-71
2022/10/06 07:55:43;;;;;;;1.30;1.10;;;18.20;45.10;;;;;;5014480;28;20763;-69
2022/10/06 07:58:21;;;;;;;1.30;1.30;;;18.20;45.40;;;;;;5014524;28;20413;-69
2022/10/06 08:00:47;;;;;;;1.30;1.20;;;18.30;45.80;;;;;;5013975;28;20384;-70
2022/10/06 08:03:16;;;;;;;1.30;1.20;;;18.40;46.30;;;;;;5014160;28;21012;-69
2022/10/06 08:05:43;;;;;;;1.30;1.20;;;18.40;44.40;;;;;;5014097;28;20443;-70
2022/10/06 08:08:09;;;;;;;1.30;1.10;;;18.40;45.60;;;;;;5014198;28;20532;-70
2022/10/06 08:10:34;;;;;;;1.30;1.20;;;18.50;45.30;;;;;;5014290;28;20458;-70
2022/10/06 08:13:04;;;;;;;1.30;1.20;;;18.40;45.00;;;;;;5013790;28;20174;-70
2022/10/06 08:15:29;;;;;;;1.30;1.13;;;18.40;43.20;;;;;;5014097;28;20226;-69
2022/10/06 08:17:57;;;;;;;1.30;1.03;;;18.40;45.30;;;;;;5014441;28;20896;-70
2022/10/06 08:20:23;;;;;;;1.30;1.10;;;18.40;45.60;;;;;;5014138;28;20191;-70
2022/10/06 08:22:49;;;;;;;1.30;1.13;;;18.50;46.80;;;;;;5013394;28;20457;-69
2022/10/06 08:25:15;;;;;;;1.30;1.20;;;18.50;47.20;;;;;;5013732;28;20413;-70
2022/10/06 08:27:42;;;;;;;1.30;1.20;;;18.60;47.00;;;;;;5013733;28;20200;-69
2022/10/06 08:30:09;;;;;;;1.30;1.10;;;18.60;47.50;;;;;;5013345;28;20167;-70
2022/10/06 08:32:36;;;;;;;1.30;1.00;;;18.70;46.20;;;;;;5012622;28;20416;-69
2022/10/06 08:35:02;;;;;;;1.30;1.10;;;18.60;47.40;;;;;;5013722;28;20420;-70
2022/10/06 08:37:27;;;;;;;1.30;1.20;;;18.70;45.80;;;;;;5013693;28;20784;-70
2022/10/06 08:39:54;;;;;;;1.30;1.20;;;18.90;44.50;;;;;;5013965;28;20416;-69
2022/10/06 08:42:34;;;;;;;1.30;1.10;;;18.90;44.80;;;;;;5011930;28;20223;-70
2022/10/06 08:45:10;;;;;;;1.30;1.20;;;19.00;44.50;;;;;;5013529;28;20466;-69
2022/10/06 08:47:36;;;;;;;1.30;1.20;;;19.00;42.60;;;;;;5013265;28;20424;-69
2022/10/06 08:50:11;;;;;;;1.30;1.20;;;19.10;41.30;;;;;;5013597;28;20455;-70
2022/10/06 08:52:52;;;;;;;1.57;1.53;;;19.10;42.60;;;;;;5013267;28;20207;-70
2022/10/06 08:55:27;;;;;;;1.30;1.20;;;19.10;42.70;;;;;;5013415;28;20389;-70
2022/10/06 08:58:20;;;;;;;1.30;1.10;;;19.30;41.70;;;;;;5013376;28;20397;-70
2022/10/06 09:00:46;;;;;;;1.30;1.27;;;19.30;41.60;;;;;;5012845;28;20516;-69
2022/10/06 09:03:22;;;;;;;1.30;1.30;;;19.40;42.80;;;;;;5013182;28;21034;-69
2022/10/06 09:05:51;;;;;;;1.30;1.20;;;19.40;41.90;;;;;;5012902;28;20212;-69
2022/10/06 09:08:52;;;;;;;1.30;1.20;;;19.50;41.60;;;;;;5013216;28;20974;-69
2022/10/06 09:11:49;;;;;;;1.30;1.10;;;19.50;41.20;;;;;;4971614;28;20447;-69
2022/10/06 09:14:16;;;;;;;1.30;1.20;;;19.50;42.00;;;;;;4971478;28;20423;-69
2022/10/06 09:16:47;;;;;;;1.30;1.13;;;19.50;41.10;;;;;;4971616;28;20466;-70
2022/10/06 09:19:23;;;;;;;1.30;1.00;;;19.60;41.30;;;;;;4971670;28;20422;-70
2022/10/06 09:21:52;;;;;;;1.30;1.10;;;19.80;41.50;;;;;;4971526;28;20418;-70
2022/10/06 09:24:37;;;;;;;1.30;1.10;;;20.00;39.40;;;;;;4971225;28;20543;-70
2022/10/06 09:27:18;;;;;;;1.30;1.13;;;20.10;39.00;;;;;;4971370;28;20463;-69
2022/10/06 09:29:47;;;;;;;1.30;1.30;;;20.20;38.90;;;;;;4971425;28;21048;-70
2022/10/06 09:32:13;;;;;;;1.30;1.20;;;20.20;38.80;;;;;;4970922;28;20787;-70
2022/10/06 09:34:58;;;;;;;1.30;1.10;;;20.30;38.80;;;;;;4970852;28;20420;-69
2022/10/06 09:37:24;;;;;;;1.50;1.33;;;20.40;39.20;;;;;;4971404;28;20568;-71
2022/10/06 09:39:51;;;;;;;1.30;1.17;;;20.30;40.10;;;;;;4971037;28;20460;-70
2022/10/06 09:42:23;;;;;;;1.30;1.20;;;20.50;39.00;;;;;;4970596;28;20989;-69
2022/10/06 09:45:02;;;;;;;1.30;1.20;;;20.40;38.40;;;;;;4983638;28;20938;-70
2022/10/06 09:47:30;;;;;;;1.30;1.20;;;20.30;37.80;;;;;;5012633;28;20426;-72
2022/10/06 09:50:26;;;;;;;1.30;1.20;;;20.30;38.20;;;;;;5012420;28;20411;-70
2022/10/06 09:52:59;;;;;;;1.30;1.10;;;20.60;38.50;;;;;;5012059;28;20410;-70
2022/10/06 09:55:29;;;;;;;1.30;1.20;;;20.80;37.40;;;;;;5010535;28;20452;-70
2022/10/06 09:57:56;;;;;;;1.30;1.10;;;20.90;36.80;;;;;;5012453;28;20928;-70
2022/10/06 10:00:25;;;;;;;1.30;1.20;;;21.10;37.20;;;;;;5012270;28;20906;-70
2022/10/06 10:03:01;;;;;;;1.30;1.10;;;21.00;36.70;;;;;;5011613;28;20457;-70
2022/10/06 10:05:30;;;;;;;1.30;1.20;;;21.20;35.70;;;;;;5012217;28;20408;-70
2022/10/06 10:08:05;;;;;;;1.30;1.10;;;21.40;36.10;;;;;;5012099;28;20433;-70
2022/10/06 10:10:33;;;;;;;1.30;1.27;;;21.60;34.40;;;;;;5012148;28;20466;-70
2022/10/06 10:12:59;;;;;;;1.30;1.20;;;21.50;33.00;;;;;;5011609;28;20415;-70
2022/10/06 10:15:37;;;;;;;1.30;1.20;;;21.30;35.00;;;;;;5011621;28;20469;-70
2022/10/06 10:18:09;;;;;;;1.30;1.20;;;21.70;34.40;;;;;;5011978;28;20396;-70
2022/10/06 10:20:49;;;;;;;1.30;1.20;;;21.00;35.30;;;;;;5011929;28;20518;-70
2022/10/06 10:23:28;;;;;;;1.30;1.10;;;21.30;35.40;;;;;;5011724;28;20442;-70
2022/10/06 10:26:30;;;;;;;1.30;1.13;;;20.80;35.00;;;;;;5011727;28;20433;-70
2022/10/06 10:29:01;;;;;;;1.30;1.20;;;20.60;36.50;;;;;;4970608;28;20428;-70
2022/10/06 10:31:50;;;;;;;1.30;1.20;;;21.20;34.90;;;;;;5004482;28;20447;-70
2022/10/06 10:34:34;;;;;;;1.30;1.10;;;21.50;33.30;;;;;;5011730;28;20447;-70
2022/10/06 10:37:24;;;;;;;1.30;1.20;;;21.40;34.10;;;;;;5011336;28;20424;-70
2022/10/06 10:40:13;;;;;;;1.30;1.20;;;21.50;33.30;;;;;;5011473;28;20459;-70
2022/10/06 10:43:09;;;;;;;1.30;1.30;;;21.50;33.00;;;;;;5005471;28;20560;-70
2022/10/06 10:45:40;;;;;;;1.30;1.17;;;21.80;34.00;;;;;;5011517;28;20475;-69
2022/10/06 10:48:32;;;;;;;1.30;1.20;;;22.00;32.90;;;;;;5011656;28;20425;-70
2022/10/06 10:51:07;;;;;;;1.23;1.20;;;21.90;32.20;;;;;;5011117;28;20495;-69
2022/10/06 10:53:52;;;;;;;1.30;1.20;;;21.80;34.00;;;;;;5011373;28;20873;-70
2022/10/06 10:56:22;;;;;;;1.30;1.20;;;22.30;31.30;;;;;;5015770;28;20426;-69
2022/10/06 10:58:53;;;;;;;1.30;1.20;;;22.40;31.00;;;;;;5015750;28;20454;-69
2022/10/06 11:01:51;;;;;;;1.30;1.20;;;22.80;30.60;;;;;;5015450;28;20408;-70
2022/10/06 11:04:17;;;;;;;1.30;1.10;;;23.00;31.10;;;;;;5015737;28;20514;-69
2022/10/06 11:07:05;;;;;;;1.30;1.20;;;23.00;29.60;;;;;;5015319;28;20530;-70
2022/10/06 11:10:02;;;;;;;1.30;1.10;;;22.00;29.70;;;;;;5015614;28;20183;-70
2022/10/06 11:12:28;;;;;;;1.30;1.20;;;22.10;30.90;;;;;;5006270;28;20797;-71
2022/10/06 11:15:03;;;;;;;1.30;1.20;;;22.60;31.00;;;;;;5015359;28;20435;-70
2022/10/06 11:17:31;;;;;;;1.30;1.10;;;22.10;31.40;;;;;;5015310;28;20216;-70
2022/10/06 11:20:08;;;;;;;1.27;1.20;;;22.40;32.50;;;;;;5015434;28;20454;-70
2022/10/06 11:22:46;;;;;;;1.30;1.10;;;22.60;29.90;;;;;;5014790;28;20467;-70
2022/10/06 11:25:38;;;;;;;1.30;1.10;;;22.10;30.20;;;;;;5014910;28;20451;-69
2022/10/06 11:28:13;;;;;;;1.30;1.10;;;22.40;30.30;;;;;;5015599;28;20390;-70
2022/10/06 11:30:59;;;;;;;1.30;1.30;;;23.00;30.00;;;;;;5014991;28;20500;-71
2022/10/06 11:33:33;;;;;;;1.30;1.20;;;23.20;29.00;;;;;;5014783;28;20417;-70
2022/10/06 11:36:00;;;;;;;1.30;1.20;;;23.80;31.70;;;;;;5015049;28;20683;-70
2022/10/06 11:38:34;;;;;;;1.30;1.10;;;23.60;28.60;;;;;;5015064;28;20771;-70
2022/10/06 11:41:08;;;;;;;1.30;1.17;;;23.80;28.60;;;;;;5014725;28;20391;-70
2022/10/06 11:44:12;;;;;;;1.27;1.10;;;24.40;28.30;;;;;;5014274;28;20959;-70
2022/10/06 11:47:00;;;;;;;1.20;1.00;;;24.80;28.40;;;;;;5007523;28;20439;-70
2022/10/06 11:49:29;;;;;;;1.30;1.20;;;25.20;27.40;;;;;;5014885;28;20416;-70
2022/10/06 11:52:06;;;;;;;1.20;1.10;;;24.30;27.10;;;;;;5014098;28;20426;-70
2022/10/06 11:54:38;;;;;;;1.30;1.10;;;25.10;27.50;;;;;;5014365;28;20407;-70
2022/10/06 11:57:26;;;;;;;1.20;1.10;;;24.70;26.30;;;;;;5014724;28;20428;-70
2022/10/06 11:59:54;;;;;;;1.27;1.10;;;23.50;28.50;;;;;;5014616;28;20563;-70
2022/10/06 12:02:31;;;;;;;1.20;1.00;;;23.90;28.00;;;;;;5014172;28;20486;-71
2022/10/06 12:05:09;;;;;;;1.20;1.10;;;23.90;28.50;;;;;;5014378;28;20422;-70
2022/10/06 12:07:53;;;;;;;1.27;1.10;;;24.80;27.90;;;;;;5014625;28;20432;-70
2022/10/06 12:10:28;;;;;;;1.27;1.10;;;24.10;29.00;;;;;;5014533;28;20470;-70
2022/10/06 12:13:15;;;;;;;1.27;1.20;;;23.80;27.70;;;;;;5013838;28;20415;-71
2022/10/06 12:15:41;;;;;;;1.30;1.20;;;24.30;28.30;;;;;;5013867;28;20782;-70
2022/10/06 12:18:14;;;;;;;1.30;1.10;;;24.80;27.10;;;;;;5014467;28;20511;-70
2022/10/06 12:20:52;;;;;;;1.30;1.10;;;24.60;27.30;;;;;;5014221;28;20177;-70
2022/10/06 12:23:37;;;;;;;1.30;1.10;;;24.70;27.80;;;;;;5013918;28;20541;-70
2022/10/06 12:26:42;;;;;;;1.30;1.10;;;24.70;28.70;;;;;;5014127;28;20818;-70
2022/10/06 12:29:33;;;;;;;1.30;1.10;;;24.70;27.20;;;;;;5012246;28;20455;-70
2022/10/06 12:32:22;;;;;;;1.30;1.10;;;24.30;27.80;;;;;;5013586;28;20412;-70
2022/10/06 12:35:06;;;;;;;1.30;1.10;;;23.60;27.60;;;;;;5013812;28;20915;-71
2022/10/06 12:37:45;;;;;;;1.30;1.20;;;22.70;29.70;;;;;;5013616;28;20437;-71
2022/10/06 12:40:42;;;;;;;1.30;1.20;;;22.90;30.80;;;;;;5013872;28;20415;-70
2022/10/06 12:43:19;;;;;;;1.30;1.17;;;23.00;30.70;;;;;;5013410;28;20458;-70
2022/10/06 12:46:25;;;;;;;1.30;1.20;;;22.70;29.80;;;;;;5013614;28;20434;-70
2022/10/06 12:49:00;;;;;;;1.30;1.10;;;22.90;29.90;;;;;;4969772;28;20433;-70
2022/10/06 12:51:33;;;;;;;1.40;1.30;;;22.80;29.90;;;;;;4969589;28;20611;-70
2022/10/06 12:54:20;;;;;;;1.30;1.20;;;22.50;29.70;;;;;;4969125;28;20425;-70
2022/10/06 12:57:20;;;;;;;1.30;1.00;;;22.30;30.60;;;;;;4969493;28;20450;-70
2022/10/06 12:59:48;;;;;;;1.30;1.20;;;22.70;30.10;;;;;;4969319;28;20484;-70
2022/10/06 13:02:21;;;;;;;1.30;1.20;;;22.10;31.90;;;;;;4969369;28;20455;-70
2022/10/06 13:04:52;;;;;;;1.30;1.10;;;22.60;30.80;;;;;;4969792;28;20449;-70
2022/10/06 13:07:19;;;;;;;1.30;1.20;;;22.90;30.00;;;;;;4969970;28;20461;-70
2022/10/06 13:09:47;;;;;;;1.30;1.10;;;22.70;31.50;;;;;;4970298;28;20644;-70
2022/10/06 13:12:26;;;;;;;1.30;1.10;;;23.10;31.80;;;;;;4969478;28;20422;-71
2022/10/06 13:15:22;;;;;;;1.30;1.17;;;23.30;30.80;;;;;;4970367;28;20436;-70
2022/10/06 13:18:06;;;;;;;1.30;1.20;;;23.30;30.00;;;;;;4972190;28;20447;-70
2022/10/06 13:20:56;;;;;;;1.30;1.10;;;23.10;30.50;;;;;;5008803;28;20415;-70